createdAt,value
2023-04-09T00:00:55.321Z,52.10
2023-04-09T00:01:55.557Z,47.00
2023-04-09T00:02:55.947Z,51.60
2023-04-09T00:03:56.275Z,48.50
2023-04-09T00:04:56.425Z,51.20
2023-04-09T00:05:56.760Z,51.50
2023-04-09T00:06:56.973Z,48.20
2023-04-09T00:07:57.282Z,47.80
2023-04-09T00:08:57.504Z,50.60
2023-04-09T00:09:57.820Z,49.60
2023-04-09T00:10:58.029Z,53.60
2023-04-09T00:11:58.357Z,48.70
2023-04-09T00:12:58.573Z,50.60
2023-04-09T00:13:58.918Z,51.10
2023-04-09T00:14:59.136Z,51.90
2023-04-09T00:15:59.474Z,54.50
2023-04-09T00:16:59.678Z,52.00
2023-04-09T00:18:00.135Z,53.60
2023-04-09T00:19:00.265Z,55.30
2023-04-09T00:20:00.474Z,51.00
2023-04-09T00:21:00.710Z,54.10
2023-04-09T00:22:01.019Z,54.00
2023-04-09T00:23:01.232Z,50.90
2023-04-09T00:24:01.579Z,52.10
2023-04-09T00:25:01.785Z,51.50
2023-04-09T00:26:02.124Z,53.20
2023-04-09T00:27:02.352Z,52.60
2023-04-09T00:28:02.697Z,51.40
2023-04-09T00:29:02.909Z,53.10
2023-04-09T00:30:03.229Z,54.30
2023-04-09T00:31:03.431Z,53.50
2023-04-09T00:32:03.868Z,52.50
2023-04-09T00:33:04.043Z,54.70
2023-04-09T00:34:04.368Z,52.80
2023-04-09T00:35:04.585Z,52.60
2023-04-09T00:36:04.863Z,53.80
2023-04-09T00:37:05.050Z,51.40
2023-04-09T00:38:05.384Z,52.40
2023-04-09T00:39:05.616Z,54.20
2023-04-09T00:40:05.841Z,52.70
2023-04-09T00:41:06.061Z,51.30
2023-04-09T00:42:06.392Z,52.60
2023-04-09T00:43:06.613Z,53.90
2023-04-09T00:44:06.965Z,55.20
2023-04-09T00:45:07.175Z,51.90
2023-04-09T00:46:07.514Z,55.50
2023-04-09T00:47:07.742Z,55.10
2023-04-09T00:48:08.060Z,53.20
2023-04-09T00:49:08.294Z,51.20
2023-04-09T00:50:08.511Z,53.00
2023-04-09T00:51:08.719Z,52.60
2023-04-09T00:52:09.045Z,52.10
2023-04-09T00:53:09.250Z,54.80
2023-04-09T00:54:09.610Z,53.30
2023-04-09T00:55:09.846Z,54.20
2023-04-09T00:56:10.057Z,53.00
2023-04-09T00:57:10.388Z,50.50
2023-04-09T00:58:10.736Z,55.60
2023-04-09T00:59:10.959Z,55.20
2023-04-09T01:00:11.189Z,52.30
2023-04-09T01:01:11.511Z,52.10
2023-04-09T01:02:11.758Z,52.90
2023-04-09T01:03:12.055Z,53.80
2023-04-09T01:04:12.298Z,53.70
2023-04-09T01:05:12.506Z,52.70
2023-04-09T01:06:12.836Z,54.90
2023-04-09T01:07:13.071Z,51.50
2023-04-09T01:08:13.292Z,51.00
2023-04-09T01:09:13.520Z,51.50
2023-04-09T01:10:13.745Z,53.90
2023-04-09T01:11:14.048Z,55.00
2023-04-09T01:12:14.386Z,57.10
2023-04-09T01:13:14.591Z,55.90
2023-04-09T01:14:14.957Z,54.10
2023-04-09T01:15:15.163Z,53.80
2023-04-09T01:16:15.523Z,56.00
2023-04-09T01:17:15.714Z,54.50
2023-04-09T01:18:16.059Z,68.20
2023-04-09T01:19:16.292Z,62.40
2023-04-09T01:20:16.519Z,57.80
2023-04-09T01:21:16.735Z,59.60
2023-04-09T01:22:17.071Z,62.40
2023-04-09T01:23:17.418Z,57.80
2023-04-09T01:24:17.637Z,57.70
2023-04-09T01:25:17.853Z,55.40
2023-04-09T01:26:18.187Z,53.80
2023-04-09T01:27:18.413Z,54.80
2023-04-09T01:28:18.745Z,58.80
2023-04-09T01:29:19.100Z,54.80
2023-04-09T01:30:19.318Z,55.00
2023-04-09T01:31:19.639Z,57.20
2023-04-09T01:32:19.981Z,54.70
2023-04-09T01:33:20.187Z,56.00
2023-04-09T01:34:20.541Z,57.50
2023-04-09T01:35:20.771Z,57.90
2023-04-09T01:36:21.092Z,57.50
2023-04-09T01:37:21.315Z,59.80
2023-04-09T01:38:21.632Z,58.60
2023-04-09T01:39:21.973Z,58.10
2023-04-09T01:40:22.217Z,58.00
2023-04-09T01:41:22.523Z,59.70
2023-04-09T01:42:22.861Z,59.40
2023-04-09T01:43:23.102Z,57.40
2023-04-09T01:44:23.348Z,57.70
2023-04-09T01:45:23.586Z,57.80
2023-04-09T01:46:23.834Z,55.40
2023-04-09T01:47:24.082Z,56.90
2023-04-09T01:48:24.280Z,58.90
2023-04-09T01:49:24.504Z,58.20
2023-04-09T01:50:24.817Z,57.10
2023-04-09T01:51:25.047Z,53.40
2023-04-09T01:52:25.356Z,55.90
2023-04-09T01:53:25.587Z,56.20
2023-04-09T01:54:25.934Z,56.70
2023-04-09T01:55:26.139Z,52.90
2023-04-09T01:56:26.491Z,55.80
2023-04-09T01:57:26.711Z,56.60
2023-04-09T01:58:26.935Z,53.20
2023-04-09T01:59:27.171Z,57.00
2023-04-09T02:00:27.443Z,53.40
2023-04-09T02:01:27.661Z,54.10
2023-04-09T02:02:28.020Z,55.40
2023-04-09T02:03:28.343Z,55.70
2023-04-09T02:04:29.533Z,57.60
2023-04-09T02:05:28.856Z,58.60
2023-04-09T02:06:29.187Z,56.60
2023-04-09T02:07:29.402Z,50.40
2023-04-09T02:08:29.734Z,56.00
2023-04-09T02:09:29.975Z,52.80
2023-04-09T02:10:30.291Z,51.40
2023-04-09T02:11:30.512Z,52.60
2023-04-09T02:12:30.839Z,51.80
2023-04-09T02:13:31.046Z,55.50
2023-04-09T02:14:31.382Z,55.20
2023-04-09T02:15:31.672Z,53.60
2023-04-09T02:16:31.855Z,53.30
2023-04-09T02:17:32.100Z,51.40
2023-04-09T02:18:32.306Z,52.90
2023-04-09T02:19:32.629Z,54.60
2023-04-09T02:20:32.870Z,53.30
2023-04-09T02:21:33.077Z,54.10
2023-04-09T02:22:33.419Z,52.10
2023-04-09T02:23:33.663Z,49.70
2023-04-09T02:24:33.981Z,53.10
2023-04-09T02:25:34.207Z,54.30
2023-04-09T02:26:34.443Z,50.70
2023-04-09T02:27:34.653Z,52.70
2023-04-09T02:28:34.986Z,54.10
2023-04-09T02:29:35.216Z,55.50
2023-04-09T02:30:35.554Z,51.50
2023-04-09T02:31:35.748Z,53.80
2023-04-09T02:32:35.956Z,52.30
2023-04-09T02:33:36.135Z,50.50
2023-04-09T02:34:36.494Z,51.40
2023-04-09T02:35:36.735Z,54.20
2023-04-09T02:36:37.063Z,52.50
2023-04-09T02:37:37.279Z,53.80
2023-04-09T02:38:37.598Z,55.20
2023-04-09T02:39:37.823Z,52.60
2023-04-09T02:40:38.052Z,56.80
2023-04-09T02:41:38.285Z,53.80
2023-04-09T02:42:38.515Z,53.40
2023-04-09T02:43:38.743Z,56.50
2023-04-09T02:44:38.997Z,53.70
2023-04-09T02:45:39.229Z,53.80
2023-04-09T02:46:39.654Z,54.90
2023-04-09T02:47:39.840Z,54.90
2023-04-09T02:48:40.183Z,59.00
2023-04-09T02:49:40.399Z,52.90
2023-04-09T02:50:40.622Z,54.00
2023-04-09T02:51:40.843Z,54.60
2023-04-09T02:52:41.070Z,52.50
2023-04-09T02:53:41.306Z,55.40
2023-04-09T02:54:41.557Z,53.90
2023-04-09T02:55:41.775Z,57.40
2023-04-09T02:56:41.993Z,57.30
2023-04-09T02:57:42.326Z,55.80
2023-04-09T02:58:42.549Z,54.10
2023-04-09T02:59:42.791Z,56.20
2023-04-09T03:00:43.029Z,55.60
2023-04-09T03:01:43.363Z,57.40
2023-04-09T03:02:43.633Z,54.80
2023-04-09T03:03:43.945Z,56.30
2023-04-09T03:04:44.043Z,55.70
2023-04-09T03:05:44.263Z,54.50
2023-04-09T03:06:44.494Z,56.10
2023-04-09T03:07:44.742Z,55.60
2023-04-09T03:08:44.965Z,58.90
2023-04-09T03:09:45.191Z,56.20
2023-04-09T03:10:45.417Z,57.00
2023-04-09T03:11:45.655Z,58.80
2023-04-09T03:12:45.872Z,57.90
2023-04-09T03:13:46.221Z,57.00
2023-04-09T03:14:46.544Z,56.80
2023-04-09T03:15:46.838Z,56.90
2023-04-09T03:16:47.106Z,59.20
2023-04-09T03:17:47.312Z,58.20
2023-04-09T03:18:47.507Z,57.20
2023-04-09T03:19:47.763Z,55.60
2023-04-09T03:20:47.964Z,58.20
2023-04-09T03:21:48.334Z,56.00
2023-04-09T03:22:48.549Z,58.80
2023-04-09T03:23:48.907Z,56.50
2023-04-09T03:24:49.147Z,53.80
2023-04-09T03:25:49.373Z,59.30
2023-04-09T03:26:49.594Z,58.60
2023-04-09T03:27:49.938Z,58.40
2023-04-09T03:28:50.592Z,58.80
2023-04-09T03:29:50.534Z,56.40
2023-04-09T03:30:50.819Z,56.30
2023-04-09T03:31:51.052Z,55.80
2023-04-09T03:32:51.332Z,58.40
2023-04-09T03:33:51.580Z,59.80
2023-04-09T03:34:51.849Z,57.00
2023-04-09T03:35:52.128Z,57.80
2023-04-09T03:36:52.391Z,56.60
2023-04-09T03:37:52.604Z,59.10
2023-04-09T03:38:53.288Z,57.70
2023-04-09T03:39:53.274Z,58.00
2023-04-09T03:40:53.500Z,56.50
2023-04-09T03:41:53.732Z,55.90
2023-04-09T03:42:53.968Z,57.50
2023-04-09T03:43:54.302Z,58.50
2023-04-09T03:44:54.526Z,55.70
2023-04-09T03:45:54.777Z,56.60
2023-04-09T03:46:55.033Z,57.10
2023-04-09T03:47:57.472Z,58.70
2023-04-09T03:48:55.553Z,54.10
2023-04-09T03:49:55.766Z,55.50
2023-04-09T03:50:55.989Z,57.30
2023-04-09T03:51:56.230Z,58.90
2023-04-09T03:52:56.489Z,57.70
2023-04-09T03:53:56.704Z,54.80
2023-04-09T03:54:57.023Z,56.80
2023-04-09T03:55:57.247Z,57.10
2023-04-09T03:56:57.494Z,56.10
2023-04-09T03:57:57.722Z,55.80
2023-04-09T03:58:57.972Z,55.70
2023-04-09T03:59:58.314Z,56.00
2023-04-09T04:00:58.542Z,56.20
2023-04-09T04:01:58.940Z,59.30
2023-04-09T04:02:59.218Z,58.80
2023-04-09T04:03:59.356Z,59.40
2023-04-09T04:04:59.571Z,55.90
2023-04-09T04:05:59.826Z,58.20
2023-04-09T04:07:00.113Z,56.40
2023-04-09T04:08:00.331Z,56.80
2023-04-09T04:09:00.569Z,59.00
2023-04-09T04:10:00.915Z,57.40
2023-04-09T04:11:01.138Z,56.70
2023-04-09T04:12:01.472Z,59.50
2023-04-09T04:13:01.789Z,58.60
2023-04-09T04:14:01.989Z,56.60
2023-04-09T04:15:02.212Z,58.40
2023-04-09T04:16:02.456Z,58.00
2023-04-09T04:17:02.692Z,57.90
2023-04-09T04:18:02.892Z,58.70
2023-04-09T04:19:03.105Z,60.80
2023-04-09T04:20:03.478Z,59.00
2023-04-09T04:21:03.681Z,59.60
2023-04-09T04:22:04.006Z,56.90
2023-04-09T04:23:04.353Z,58.00
2023-04-09T04:24:04.572Z,55.60
2023-04-09T04:25:04.810Z,59.60
2023-04-09T04:26:05.030Z,57.30
2023-04-09T04:27:05.250Z,58.10
2023-04-09T04:28:05.593Z,57.40
2023-04-09T04:29:05.847Z,55.60
2023-04-09T04:30:06.098Z,55.60
2023-04-09T04:31:06.342Z,57.30
2023-04-09T04:32:06.671Z,55.80
2023-04-09T04:33:06.900Z,57.90
2023-04-09T04:34:07.122Z,56.10
2023-04-09T04:35:07.409Z,58.50
2023-04-09T04:36:14.687Z,54.70
2023-04-09T04:37:07.848Z,57.60
2023-04-09T04:38:08.176Z,55.60
2023-04-09T04:39:08.402Z,57.20
2023-04-09T04:40:08.741Z,55.90
2023-04-09T04:41:08.947Z,58.60
2023-04-09T04:42:09.290Z,57.60
2023-04-09T04:43:09.513Z,56.70
2023-04-09T04:44:09.836Z,55.30
2023-04-09T04:45:10.091Z,54.00
2023-04-09T04:46:10.347Z,55.90
2023-04-09T04:47:10.533Z,56.70
2023-04-09T04:48:10.870Z,56.60
2023-04-09T04:49:11.089Z,57.30
2023-04-09T04:50:11.435Z,55.10
2023-04-09T04:51:11.680Z,56.60
2023-04-09T04:52:11.933Z,56.60
2023-04-09T04:53:12.122Z,58.60
2023-04-09T04:54:12.448Z,56.40
2023-04-09T04:55:12.709Z,57.50
2023-04-09T04:56:12.934Z,60.60
2023-04-09T04:57:13.160Z,59.90
2023-04-09T04:58:13.499Z,59.40
2023-04-09T04:59:13.719Z,62.80
2023-04-09T05:00:14.085Z,63.90
2023-04-09T05:01:14.330Z,64.90
2023-04-09T05:02:14.644Z,56.80
2023-04-09T05:03:15.028Z,62.40
2023-04-09T05:04:15.158Z,64.60
2023-04-09T05:05:15.403Z,62.50
2023-04-09T05:06:15.630Z,62.20
2023-04-09T05:07:15.858Z,65.10
2023-04-09T05:08:16.188Z,65.80
2023-04-09T05:09:16.525Z,65.30
2023-04-09T05:10:16.878Z,66.60
2023-04-09T05:11:17.095Z,64.20
2023-04-09T05:12:17.418Z,64.90
2023-04-09T05:13:17.643Z,65.60
2023-04-09T05:14:17.876Z,60.80
2023-04-09T05:15:18.104Z,63.80
2023-04-09T05:16:18.382Z,67.20
2023-04-09T05:17:18.600Z,66.20
2023-04-09T05:18:18.932Z,66.20
2023-04-09T05:19:19.132Z,70.30
2023-04-09T05:20:19.468Z,58.50
2023-04-09T05:21:19.696Z,66.90
2023-04-09T05:22:20.044Z,67.40
2023-04-09T05:23:20.302Z,68.30
2023-04-09T05:24:20.519Z,64.90
2023-04-09T05:25:20.760Z,63.40
2023-04-09T05:26:20.983Z,59.30
2023-04-09T05:27:21.201Z,59.40
2023-04-09T05:28:21.555Z,63.10
2023-04-09T05:29:21.757Z,70.30
2023-04-09T05:30:22.086Z,68.70
2023-04-09T05:31:22.294Z,80.30
2023-04-09T05:32:22.648Z,107.70
2023-04-09T05:33:22.905Z,66.60
2023-04-09T05:34:23.209Z,65.40
2023-04-09T05:35:23.434Z,64.50
2023-04-09T05:36:23.747Z,82.30
2023-04-09T05:37:23.946Z,80.90
2023-04-09T05:38:24.271Z,91.60
2023-04-09T05:39:24.499Z,80.00
2023-04-09T05:40:24.730Z,115.00
2023-04-09T05:41:24.957Z,78.70
2023-04-09T05:42:25.272Z,78.10
2023-04-09T05:43:25.485Z,84.40
2023-04-09T05:44:25.815Z,222.50
2023-04-09T05:45:26.029Z,160.50
2023-04-09T05:46:26.263Z,137.60
2023-04-09T05:47:26.478Z,132.00
2023-04-09T05:48:26.689Z,150.00
2023-04-09T05:49:26.877Z,143.00
2023-04-09T05:50:27.206Z,107.50
2023-04-09T05:51:27.415Z,115.60
2023-04-09T05:52:27.738Z,128.00
2023-04-09T05:53:27.939Z,252.20
2023-04-09T05:54:28.139Z,145.00
2023-04-09T05:55:28.356Z,180.40
2023-04-09T05:56:28.576Z,114.10
2023-04-09T05:57:28.781Z,161.10
2023-04-09T05:58:29.106Z,102.40
2023-04-09T05:59:29.311Z,239.70
2023-04-09T06:00:29.568Z,106.30
2023-04-09T06:01:29.772Z,101.60
2023-04-09T06:02:30.128Z,96.90
2023-04-09T06:03:30.460Z,100.70
2023-04-09T06:04:30.631Z,94.10
2023-04-09T06:05:30.848Z,94.80
2023-04-09T06:06:31.045Z,102.90
2023-04-09T06:07:31.243Z,118.20
2023-04-09T06:08:31.575Z,112.20
2023-04-09T06:09:31.781Z,106.00
2023-04-09T06:10:32.112Z,100.30
2023-04-09T06:11:32.314Z,99.10
2023-04-09T06:12:32.645Z,94.90
2023-04-09T06:13:32.856Z,95.50
2023-04-09T06:14:33.259Z,96.10
2023-04-09T06:15:33.456Z,95.20
2023-04-09T06:16:33.745Z,94.60
2023-04-09T06:17:34.073Z,96.20
2023-04-09T06:18:34.373Z,94.90
2023-04-09T06:19:34.576Z,97.30
2023-04-09T06:20:34.917Z,97.40
2023-04-09T06:21:35.108Z,93.10
2023-04-09T06:22:35.414Z,94.20
2023-04-09T06:23:35.723Z,96.10
2023-04-09T06:24:35.923Z,92.10
2023-04-09T06:25:36.128Z,90.50
2023-04-09T06:26:36.331Z,94.70
2023-04-09T06:27:36.536Z,89.10
2023-04-09T06:28:36.830Z,86.60
2023-04-09T06:29:37.026Z,85.60
2023-04-09T06:30:37.402Z,85.00
2023-04-09T06:31:37.686Z,83.40
2023-04-09T06:32:47.251Z,88.60
2023-04-09T06:33:39.081Z,83.60
2023-04-09T06:34:38.274Z,84.60
2023-04-09T06:35:38.500Z,91.40
2023-04-09T06:36:38.770Z,83.90
2023-04-09T06:37:38.956Z,84.80
2023-04-09T06:38:39.277Z,83.10
2023-04-09T06:39:42.487Z,80.00
2023-04-09T06:40:40.767Z,77.80
2023-04-09T06:41:39.981Z,78.50
2023-04-09T06:42:40.231Z,77.30
2023-04-09T06:43:40.462Z,76.20
2023-04-09T06:44:40.712Z,74.20
2023-04-09T06:45:41.255Z,76.00
2023-04-09T06:46:41.263Z,72.80
2023-04-09T06:47:41.423Z,73.20
2023-04-09T06:48:41.720Z,72.30
2023-04-09T06:49:41.934Z,72.70
2023-04-09T06:50:42.129Z,71.50
2023-04-09T06:51:42.310Z,70.40
2023-04-09T06:52:42.510Z,67.50
2023-04-09T06:53:42.734Z,64.90
2023-04-09T06:54:42.876Z,63.90
2023-04-09T06:55:43.076Z,64.30
2023-04-09T06:56:43.263Z,61.30
2023-04-09T06:57:43.425Z,61.20
2023-04-09T06:58:43.729Z,60.90
2023-04-09T06:59:43.902Z,61.30
2023-04-09T07:00:44.120Z,60.00
2023-04-09T07:01:44.371Z,58.10
2023-04-09T07:02:44.790Z,59.00
2023-04-09T07:03:44.765Z,56.90
2023-04-09T07:04:45.027Z,55.40
2023-04-09T07:05:45.214Z,55.10
2023-04-09T07:06:45.364Z,53.00
2023-04-09T07:07:45.634Z,55.90
2023-04-09T07:08:45.797Z,52.30
2023-04-09T07:09:46.153Z,51.00
2023-04-09T07:10:46.146Z,53.20
2023-04-09T07:11:46.304Z,53.00
2023-04-09T07:12:46.469Z,52.80
2023-04-09T07:13:46.619Z,50.20
2023-04-09T07:14:46.773Z,50.00
2023-04-09T07:15:46.974Z,52.40
2023-04-09T07:16:47.107Z,51.70
2023-04-09T07:17:47.321Z,49.40
2023-04-09T07:18:47.439Z,50.80
2023-04-09T07:19:47.697Z,50.80
2023-04-09T07:20:47.863Z,49.50
2023-04-09T07:21:48.025Z,52.80
2023-04-09T07:22:48.166Z,46.40
2023-04-09T07:23:48.316Z,49.60
2023-04-09T07:24:48.442Z,47.10
2023-04-09T07:25:48.729Z,49.00
2023-04-09T07:26:50.512Z,45.90
2023-04-09T07:27:49.059Z,48.20
2023-04-09T07:28:49.219Z,48.50
2023-04-09T07:29:49.369Z,49.70
2023-04-09T07:30:49.513Z,47.40
2023-04-09T07:31:49.693Z,46.50
2023-04-09T07:32:50.079Z,47.10
2023-04-09T07:33:50.149Z,48.50
2023-04-09T07:34:50.242Z,47.90
2023-04-09T07:35:50.583Z,50.90
2023-04-09T07:36:54.359Z,47.90
2023-04-09T07:37:50.820Z,50.60
2023-04-09T07:38:51.251Z,46.20
2023-04-09T07:39:51.153Z,46.50
2023-04-09T07:40:51.296Z,46.70
2023-04-09T07:41:51.439Z,43.70
2023-04-09T07:42:51.556Z,47.00
2023-04-09T07:43:51.806Z,46.50
2023-04-09T07:44:51.952Z,45.00
2023-04-09T07:45:52.194Z,44.40
2023-04-09T07:46:52.377Z,44.70
2023-04-09T07:47:52.572Z,45.50
2023-04-09T07:48:52.983Z,45.00
2023-04-09T07:49:52.818Z,45.60
2023-04-09T07:50:53.010Z,41.90
2023-04-09T07:51:53.140Z,43.70
2023-04-09T07:52:53.268Z,42.40
2023-04-09T07:53:53.386Z,44.90
2023-04-09T07:54:53.491Z,44.40
2023-04-09T07:55:53.769Z,43.10
2023-04-09T07:56:53.895Z,41.00
2023-04-09T07:57:54.012Z,43.00
2023-04-09T07:58:54.350Z,41.10
2023-04-09T07:59:54.247Z,41.30
2023-04-09T08:00:54.358Z,42.10
2023-04-09T08:01:54.526Z,42.70
2023-04-09T08:02:55.080Z,43.00
2023-04-09T08:03:54.980Z,43.00
2023-04-09T08:04:55.034Z,41.70
2023-04-09T08:05:55.054Z,39.30
2023-04-09T08:06:55.163Z,40.30
2023-04-09T08:07:55.345Z,38.90
2023-04-09T08:08:55.432Z,39.30
2023-04-09T08:09:55.645Z,40.10
2023-04-09T08:10:55.742Z,45.20
2023-04-09T08:11:55.857Z,42.70
2023-04-09T08:12:56.035Z,40.70
2023-04-09T08:13:56.153Z,44.40
2023-04-09T08:14:56.218Z,40.90
2023-04-09T08:15:56.448Z,41.10
2023-04-09T08:16:56.559Z,40.20
2023-04-09T08:17:56.655Z,42.90
2023-04-09T08:18:56.686Z,43.20
2023-04-09T08:19:56.888Z,41.10
2023-04-09T08:20:56.963Z,41.00
2023-04-09T08:21:57.056Z,40.10
2023-04-09T08:22:57.144Z,43.70
2023-04-09T08:23:57.353Z,43.90
2023-04-09T08:24:57.430Z,46.50
2023-04-09T08:25:57.639Z,42.90
2023-04-09T08:26:57.759Z,43.80
2023-04-09T08:27:57.843Z,43.50
2023-04-09T08:28:57.948Z,41.30
2023-04-09T08:29:58.038Z,43.00
2023-04-09T08:30:58.157Z,40.60
2023-04-09T08:31:58.290Z,43.00
2023-04-09T08:32:58.416Z,41.90
2023-04-09T08:33:58.496Z,42.60
2023-04-09T08:34:58.578Z,44.30
2023-04-09T08:35:59.228Z,48.90
2023-04-09T08:36:58.873Z,47.60
2023-04-09T08:37:58.993Z,42.40
2023-04-09T08:38:59.078Z,44.60
2023-04-09T08:39:59.176Z,42.90
2023-04-09T08:40:59.268Z,43.00
2023-04-09T08:41:59.383Z,41.10
2023-04-09T08:42:59.463Z,40.40
2023-04-09T08:44:00.105Z,41.20
2023-04-09T08:44:59.669Z,41.30
2023-04-09T08:45:59.781Z,44.50
2023-04-09T08:46:59.850Z,42.00
2023-04-09T08:48:00.046Z,40.90
2023-04-09T08:49:00.026Z,42.00
2023-04-09T08:50:00.211Z,41.30
2023-04-09T08:51:00.253Z,44.80
2023-04-09T08:52:01.110Z,43.70
2023-04-09T08:53:00.404Z,41.30
2023-04-09T08:54:03.242Z,41.80
2023-04-09T08:55:00.705Z,40.70
2023-04-09T08:56:00.834Z,41.60
2023-04-09T08:57:00.893Z,42.90
2023-04-09T08:58:00.993Z,43.10
2023-04-09T08:59:01.087Z,44.10
2023-04-09T09:00:01.201Z,45.00
2023-04-09T09:01:01.366Z,41.80
2023-04-09T09:02:01.695Z,42.40
2023-04-09T09:03:01.742Z,44.60
2023-04-09T09:04:01.763Z,38.80
2023-04-09T09:05:01.768Z,38.60
2023-04-09T09:06:01.859Z,40.00
2023-04-09T09:07:02.013Z,39.30
2023-04-09T09:08:02.086Z,39.20
2023-04-09T09:09:02.167Z,39.30
2023-04-09T09:10:02.305Z,38.80
2023-04-09T09:11:02.360Z,39.00
2023-04-09T09:12:02.443Z,40.30
2023-04-09T09:13:02.494Z,37.40
2023-04-09T09:14:02.555Z,38.70
2023-04-09T09:15:02.649Z,40.00
2023-04-09T09:16:02.737Z,41.90
2023-04-09T09:17:02.814Z,40.10
2023-04-09T09:18:02.889Z,42.80
2023-04-09T09:19:02.900Z,52.20
2023-04-09T09:20:02.975Z,49.90
2023-04-09T09:21:03.038Z,46.00
2023-04-09T09:22:03.089Z,43.70
2023-04-09T09:23:03.131Z,41.30
2023-04-09T09:24:03.161Z,39.90
2023-04-09T09:25:03.196Z,39.10
2023-04-09T09:26:03.264Z,40.10
2023-04-09T09:27:03.313Z,38.20
2023-04-09T09:28:03.392Z,38.40
2023-04-09T09:29:03.420Z,36.40
2023-04-09T09:30:03.474Z,36.70
2023-04-09T09:31:03.603Z,38.40
2023-04-09T09:32:03.672Z,39.00
2023-04-09T09:33:03.709Z,40.10
2023-04-09T09:34:03.764Z,37.20
2023-04-09T09:35:04.798Z,37.80
2023-04-09T09:36:03.943Z,35.60
2023-04-09T09:37:03.966Z,38.80
2023-04-09T09:38:04.021Z,35.70
2023-04-09T09:39:04.102Z,37.90
2023-04-09T09:40:04.118Z,37.40
2023-04-09T09:41:04.176Z,35.90
2023-04-09T09:42:04.208Z,36.50
2023-04-09T09:43:04.262Z,35.20
2023-04-09T09:44:04.307Z,36.50
2023-04-09T09:45:04.383Z,34.50
2023-04-09T09:46:04.474Z,34.40
2023-04-09T09:47:04.632Z,38.30
2023-04-09T09:48:04.575Z,36.50
2023-04-09T09:49:04.586Z,36.20
2023-04-09T09:50:04.702Z,35.30
2023-04-09T09:51:04.709Z,33.50
2023-04-09T09:52:04.789Z,32.50
2023-04-09T09:53:04.867Z,34.80
2023-04-09T09:54:04.852Z,34.40
2023-04-09T09:55:04.896Z,34.30
2023-04-09T09:56:05.032Z,36.10
2023-04-09T09:57:04.928Z,34.70
2023-04-09T09:58:04.960Z,34.30
2023-04-09T09:59:05.008Z,33.70
2023-04-09T10:00:04.992Z,36.10
2023-04-09T10:01:05.049Z,33.60
2023-04-09T10:02:05.117Z,35.00
2023-04-09T10:03:05.350Z,33.90
2023-04-09T10:04:05.215Z,33.80
2023-04-09T10:05:05.213Z,35.30
2023-04-09T10:06:05.280Z,34.20
2023-04-09T10:07:05.329Z,33.30
2023-04-09T10:08:05.335Z,33.90
2023-04-09T10:09:05.369Z,33.10
2023-04-09T10:10:05.413Z,33.60
2023-04-09T10:11:05.430Z,32.60
2023-04-09T10:12:05.433Z,32.90
2023-04-09T10:13:05.449Z,34.60
2023-04-09T10:14:05.476Z,34.00
2023-04-09T10:15:05.499Z,34.00
2023-04-09T10:16:05.592Z,33.20
2023-04-09T10:17:05.579Z,33.40
2023-04-09T10:18:05.718Z,32.20
2023-04-09T10:19:05.701Z,32.70
2023-04-09T10:20:05.734Z,31.00
2023-04-09T10:21:05.811Z,33.90
2023-04-09T10:22:05.832Z,34.20
2023-04-09T10:23:05.854Z,34.40
2023-04-09T10:24:05.878Z,38.10
2023-04-09T10:25:05.856Z,34.90
2023-04-09T10:26:05.924Z,33.50
2023-04-09T10:27:05.930Z,33.70
2023-04-09T10:28:05.945Z,32.40
2023-04-09T10:29:05.949Z,33.00
2023-04-09T10:30:05.975Z,33.90
2023-04-09T10:31:06.057Z,35.00
2023-04-09T10:32:06.036Z,34.50
2023-04-09T10:33:06.108Z,34.60
2023-04-09T10:34:06.084Z,32.10
2023-04-09T10:35:06.090Z,32.10
2023-04-09T10:36:06.147Z,30.70
2023-04-09T10:37:13.109Z,30.70
2023-04-09T10:38:06.220Z,30.70
2023-04-09T10:39:06.227Z,31.40
2023-04-09T10:40:06.231Z,32.50
2023-04-09T10:41:06.245Z,32.20
2023-04-09T10:42:06.287Z,30.80
2023-04-09T10:43:06.310Z,31.10
2023-04-09T10:44:06.333Z,31.60
2023-04-09T10:45:06.354Z,31.30
2023-04-09T10:46:06.443Z,32.30
2023-04-09T10:47:06.395Z,30.40
2023-04-09T10:48:06.503Z,30.10
2023-04-09T10:49:06.497Z,32.20
2023-04-09T10:50:06.532Z,32.70
2023-04-09T10:51:06.604Z,32.70
2023-04-09T10:52:07.421Z,31.80
2023-04-09T10:53:06.609Z,30.60
2023-04-09T10:54:06.605Z,29.90
2023-04-09T10:55:06.618Z,32.80
2023-04-09T10:56:06.660Z,29.20
2023-04-09T10:57:06.634Z,31.40
2023-04-09T10:58:07.540Z,29.90
2023-04-09T10:59:06.628Z,31.10
2023-04-09T11:00:06.644Z,30.40
2023-04-09T11:01:06.666Z,30.00
2023-04-09T11:02:06.857Z,27.80
2023-04-09T11:03:06.873Z,28.10
2023-04-09T11:04:07.378Z,29.50
2023-04-09T11:05:06.807Z,26.20
2023-04-09T11:06:06.809Z,27.30
2023-04-09T11:07:06.794Z,27.20
2023-04-09T11:08:06.801Z,27.40
2023-04-09T11:09:06.793Z,26.20
2023-04-09T11:10:06.817Z,27.80
2023-04-09T11:11:06.820Z,27.10
2023-04-09T11:12:06.805Z,26.40
2023-04-09T11:13:06.816Z,26.30
2023-04-09T11:14:06.819Z,27.70
2023-04-09T11:15:06.823Z,50.80
2023-04-09T11:16:07.287Z,54.20
2023-04-09T11:17:06.833Z,38.80
2023-04-09T11:18:06.863Z,34.90
2023-04-09T11:19:06.840Z,30.20
2023-04-09T11:20:06.805Z,28.50
2023-04-09T11:21:06.779Z,27.30
2023-04-09T11:22:07.932Z,27.80
2023-04-09T11:23:06.991Z,28.00
2023-04-09T11:24:06.979Z,28.30
2023-04-09T11:25:06.973Z,26.30
2023-04-09T11:26:06.948Z,24.70
2023-04-09T11:27:07.079Z,26.10
2023-04-09T11:28:07.082Z,27.80
2023-04-09T11:29:07.070Z,25.60
2023-04-09T11:30:07.061Z,29.90
2023-04-09T11:31:07.223Z,26.30
2023-04-09T11:32:07.152Z,26.10
2023-04-09T11:33:07.186Z,27.00
2023-04-09T11:34:07.127Z,26.20
2023-04-09T11:35:07.119Z,30.30
2023-04-09T11:36:07.214Z,25.30
2023-04-09T11:37:07.167Z,28.50
2023-04-09T11:38:07.161Z,28.30
2023-04-09T11:39:07.160Z,25.40
2023-04-09T11:40:07.138Z,26.10
2023-04-09T11:41:07.122Z,26.30
2023-04-09T11:42:07.115Z,29.70
2023-04-09T11:43:07.119Z,27.30
2023-04-09T11:44:07.106Z,26.10
2023-04-09T11:45:07.108Z,27.30
2023-04-09T11:46:07.102Z,26.20
2023-04-09T11:47:07.135Z,27.30
2023-04-09T11:48:07.154Z,28.30
2023-04-09T11:49:07.146Z,26.50
2023-04-09T11:50:07.130Z,25.30
2023-04-09T11:51:08.104Z,27.40
2023-04-09T11:52:07.135Z,24.50
2023-04-09T11:53:09.288Z,25.20
2023-04-09T11:54:07.171Z,24.10
2023-04-09T11:55:07.189Z,24.40
2023-04-09T11:56:07.234Z,25.10
2023-04-09T11:57:07.264Z,24.30
2023-04-09T11:58:07.240Z,23.30
2023-04-09T11:59:07.236Z,22.90
2023-04-09T12:00:07.240Z,22.80
2023-04-09T12:01:07.221Z,25.20
2023-04-09T12:02:07.322Z,23.80
2023-04-09T12:03:07.554Z,24.50
2023-04-09T12:04:07.456Z,25.40
2023-04-09T12:05:07.400Z,24.30
2023-04-09T12:06:07.365Z,23.40
2023-04-09T12:07:07.365Z,23.40
2023-04-09T12:08:07.368Z,24.40
2023-04-09T12:09:07.350Z,25.80
2023-04-09T12:10:07.363Z,22.80
2023-04-09T12:11:07.416Z,25.80
2023-04-09T12:12:07.429Z,23.70
2023-04-09T12:13:07.436Z,24.50
2023-04-09T12:14:07.442Z,23.50
2023-04-09T12:15:07.462Z,25.70
2023-04-09T12:16:07.523Z,24.10
2023-04-09T12:17:07.520Z,23.80
2023-04-09T12:18:07.600Z,23.40
2023-04-09T12:19:07.617Z,25.70
2023-04-09T12:20:07.713Z,26.30
2023-04-09T12:21:07.701Z,23.90
2023-04-09T12:22:07.780Z,23.10
2023-04-09T12:23:07.810Z,22.90
2023-04-09T12:24:07.790Z,24.60
2023-04-09T12:25:07.773Z,23.80
2023-04-09T12:26:07.773Z,23.30
2023-04-09T12:27:07.781Z,22.40
2023-04-09T12:28:07.763Z,24.90
2023-04-09T12:29:07.788Z,21.30
2023-04-09T12:30:07.851Z,21.20
2023-04-09T12:31:07.806Z,22.20
2023-04-09T12:32:07.901Z,26.40
2023-04-09T12:33:10.709Z,22.50
2023-04-09T12:34:07.856Z,21.00
2023-04-09T12:35:07.855Z,24.20
2023-04-09T12:36:07.866Z,23.10
2023-04-09T12:37:07.865Z,22.60
2023-04-09T12:38:07.854Z,21.60
2023-04-09T12:39:07.847Z,20.40
2023-04-09T12:40:07.829Z,20.80
2023-04-09T12:41:07.812Z,19.10
2023-04-09T12:42:07.844Z,20.90
2023-04-09T12:43:07.842Z,19.60
2023-04-09T12:44:07.863Z,18.40
2023-04-09T12:45:07.857Z,18.90
2023-04-09T12:46:07.960Z,19.80
2023-04-09T12:47:07.972Z,19.30
2023-04-09T12:48:08.000Z,19.20
2023-04-09T12:49:08.005Z,18.90
2023-04-09T12:50:08.006Z,19.50
2023-04-09T12:51:08.008Z,22.00
2023-04-09T12:52:08.013Z,23.60
2023-04-09T12:53:08.014Z,23.20
2023-04-09T12:54:08.023Z,28.20